sensor_id;sensor_type;location;lat;lon;timestamp;P1;durP1;ratioP1;P2;durP2;ratioP2
25435;SDS011;13363;52.772;-3.890;2023-05-07T00:00:36;5.13;;;3.03;;
25435;SDS011;13363;52.772;-3.890;2023-05-07T00:03:02;5.00;;;3.13;;
25435;SDS011;13363;52.772;-3.890;2023-05-07T00:05:28;4.30;;;3.10;;
25435;SDS011;13363;52.772;-3.890;2023-05-07T00:07:54;5.87;;;3.10;;
25435;SDS011;13363;52.772;-3.890;2023-05-07T00:10:20;7.90;;;3.63;;
25435;SDS011;13363;52.772;-3.890;2023-05-07T00:12:46;5.57;;;3.03;;
25435;SDS011;13363;52.772;-3.890;2023-05-07T00:15:12;5.37;;;3.27;;
25435;SDS011;13363;52.772;-3.890;2023-05-07T00:17:38;5.27;;;3.13;;
25435;SDS011;13363;52.772;-3.890;2023-05-07T00:20:04;4.27;;;2.67;;
25435;SDS011;13363;52.772;-3.890;2023-05-07T00:22:30;6.67;;;3.50;;
25435;SDS011;13363;52.772;-3.890;2023-05-07T00:24:57;3.53;;;3.10;;
25435;SDS011;13363;52.772;-3.890;2023-05-07T00:27:24;6.00;;;3.37;;
25435;SDS011;13363;52.772;-3.890;2023-05-07T00:29:50;6.50;;;3.10;;
25435;SDS011;13363;52.772;-3.890;2023-05-07T00:32:16;8.37;;;2.80;;
25435;SDS011;13363;52.772;-3.890;2023-05-07T00:34:42;6.23;;;3.23;;
25435;SDS011;13363;52.772;-3.890;2023-05-07T00:37:08;3.47;;;2.77;;
25435;SDS011;13363;52.772;-3.890;2023-05-07T00:39:35;7.53;;;3.50;;
25435;SDS011;13363;52.772;-3.890;2023-05-07T00:42:01;3.50;;;2.50;;
25435;SDS011;13363;52.772;-3.890;2023-05-07T00:44:28;3.43;;;2.57;;
25435;SDS011;13363;52.772;-3.890;2023-05-07T00:46:55;4.23;;;2.53;;
25435;SDS011;13363;52.772;-3.890;2023-05-07T00:49:28;3.60;;;2.50;;
25435;SDS011;13363;52.772;-3.890;2023-05-07T00:52:02;5.60;;;2.50;;
25435;SDS011;13363;52.772;-3.890;2023-05-07T00:54:28;5.10;;;3.10;;
25435;SDS011;13363;52.772;-3.890;2023-05-07T00:56:54;5.17;;;3.50;;
25435;SDS011;13363;52.772;-3.890;2023-05-07T00:59:21;4.13;;;2.73;;
25435;SDS011;13363;52.772;-3.890;2023-05-07T01:01:47;4.53;;;2.73;;
25435;SDS011;13363;52.772;-3.890;2023-05-07T01:04:13;3.90;;;2.27;;
25435;SDS011;13363;52.772;-3.890;2023-05-07T01:06:38;3.30;;;2.77;;
25435;SDS011;13363;52.772;-3.890;2023-05-07T01:09:05;7.20;;;2.73;;
25435;SDS011;13363;52.772;-3.890;2023-05-07T01:11:32;4.50;;;2.93;;
25435;SDS011;13363;52.772;-3.890;2023-05-07T01:13:58;3.07;;;2.77;;
25435;SDS011;13363;52.772;-3.890;2023-05-07T01:16:25;4.57;;;2.90;;
25435;SDS011;13363;52.772;-3.890;2023-05-07T01:18:51;3.63;;;3.00;;
25435;SDS011;13363;52.772;-3.890;2023-05-07T01:21:17;5.93;;;2.60;;
25435;SDS011;13363;52.772;-3.890;2023-05-07T01:23:44;4.27;;;2.90;;
25435;SDS011;13363;52.772;-3.890;2023-05-07T01:26:11;6.43;;;3.03;;
25435;SDS011;13363;52.772;-3.890;2023-05-07T01:28:36;3.73;;;2.97;;
25435;SDS011;13363;52.772;-3.890;2023-05-07T01:31:02;3.67;;;3.00;;
25435;SDS011;13363;52.772;-3.890;2023-05-07T01:33:33;3.23;;;2.83;;
25435;SDS011;13363;52.772;-3.890;2023-05-07T01:36:01;3.13;;;2.77;;
25435;SDS011;13363;52.772;-3.890;2023-05-07T01:38:31;4.03;;;2.53;;
25435;SDS011;13363;52.772;-3.890;2023-05-07T01:40:57;3.90;;;2.93;;
25435;SDS011;13363;52.772;-3.890;2023-05-07T01:43:23;4.93;;;2.80;;
25435;SDS011;13363;52.772;-3.890;2023-05-07T01:45:49;5.57;;;3.43;;
25435;SDS011;13363;52.772;-3.890;2023-05-07T01:48:15;3.43;;;2.97;;
25435;SDS011;13363;52.772;-3.890;2023-05-07T01:50:42;4.27;;;3.17;;
25435;SDS011;13363;52.772;-3.890;2023-05-07T01:53:09;4.90;;;3.03;;
25435;SDS011;13363;52.772;-3.890;2023-05-07T01:55:35;6.73;;;3.03;;
25435;SDS011;13363;52.772;-3.890;2023-05-07T01:58:02;3.83;;;3.20;;
25435;SDS011;13363;52.772;-3.890;2023-05-07T02:00:28;4.67;;;3.13;;
25435;SDS011;13363;52.772;-3.890;2023-05-07T02:02:54;5.17;;;2.80;;
25435;SDS011;13363;52.772;-3.890;2023-05-07T02:05:20;3.50;;;3.20;;
25435;SDS011;13363;52.772;-3.890;2023-05-07T02:07:46;4.80;;;2.87;;
25435;SDS011;13363;52.772;-3.890;2023-05-07T02:10:11;5.93;;;3.17;;
25435;SDS011;13363;52.772;-3.890;2023-05-07T02:12:37;7.20;;;3.97;;
25435;SDS011;13363;52.772;-3.890;2023-05-07T02:15:03;5.20;;;3.00;;
25435;SDS011;13363;52.772;-3.890;2023-05-07T02:17:30;3.13;;;2.83;;
25435;SDS011;13363;52.772;-3.890;2023-05-07T02:19:58;5.63;;;3.73;;
25435;SDS011;13363;52.772;-3.890;2023-05-07T02:22:24;3.67;;;3.03;;
25435;SDS011;13363;52.772;-3.890;2023-05-07T02:24:50;4.90;;;3.13;;
25435;SDS011;13363;52.772;-3.890;2023-05-07T02:27:16;5.17;;;3.00;;
25435;SDS011;13363;52.772;-3.890;2023-05-07T02:29:42;6.90;;;3.33;;
25435;SDS011;13363;52.772;-3.890;2023-05-07T02:32:08;4.20;;;3.10;;
25435;SDS011;13363;52.772;-3.890;2023-05-07T02:34:33;8.00;;;3.47;;
25435;SDS011;13363;52.772;-3.890;2023-05-07T02:36:59;4.10;;;3.07;;
25435;SDS011;13363;52.772;-3.890;2023-05-07T02:39:25;6.03;;;3.10;;
25435;SDS011;13363;52.772;-3.890;2023-05-07T02:41:51;4.40;;;3.07;;
25435;SDS011;13363;52.772;-3.890;2023-05-07T02:44:17;5.63;;;3.40;;
25435;SDS011;13363;52.772;-3.890;2023-05-07T02:46:42;4.97;;;3.07;;
25435;SDS011;13363;52.772;-3.890;2023-05-07T02:49:08;7.13;;;3.50;;
25435;SDS011;13363;52.772;-3.890;2023-05-07T02:51:34;4.03;;;3.03;;
25435;SDS011;13363;52.772;-3.890;2023-05-07T02:54:00;7.37;;;3.20;;
25435;SDS011;13363;52.772;-3.890;2023-05-07T02:56:26;5.10;;;3.50;;
25435;SDS011;13363;52.772;-3.890;2023-05-07T02:58:52;5.10;;;3.00;;
25435;SDS011;13363;52.772;-3.890;2023-05-07T03:01:18;7.30;;;3.37;;
25435;SDS011;13363;52.772;-3.890;2023-05-07T03:03:44;6.37;;;2.87;;
25435;SDS011;13363;52.772;-3.890;2023-05-07T03:06:10;5.10;;;3.30;;
25435;SDS011;13363;52.772;-3.890;2023-05-07T03:08:35;5.90;;;3.57;;
25435;SDS011;13363;52.772;-3.890;2023-05-07T03:11:02;6.30;;;3.13;;
25435;SDS011;13363;52.772;-3.890;2023-05-07T03:13:28;7.73;;;4.73;;
25435;SDS011;13363;52.772;-3.890;2023-05-07T03:15:53;3.50;;;3.17;;
25435;SDS011;13363;52.772;-3.890;2023-05-07T03:18:19;4.57;;;3.03;;
25435;SDS011;13363;52.772;-3.890;2023-05-07T03:20:45;7.53;;;3.40;;
25435;SDS011;13363;52.772;-3.890;2023-05-07T03:23:13;5.37;;;3.07;;
25435;SDS011;13363;52.772;-3.890;2023-05-07T03:25:39;6.80;;;3.50;;
25435;SDS011;13363;52.772;-3.890;2023-05-07T03:28:04;11.53;;;3.30;;
25435;SDS011;13363;52.772;-3.890;2023-05-07T03:30:30;7.20;;;3.60;;
25435;SDS011;13363;52.772;-3.890;2023-05-07T03:32:56;8.77;;;3.53;;
25435;SDS011;13363;52.772;-3.890;2023-05-07T03:35:22;4.70;;;3.10;;
25435;SDS011;13363;52.772;-3.890;2023-05-07T03:37:48;3.83;;;3.47;;
25435;SDS011;13363;52.772;-3.890;2023-05-07T03:40:13;5.23;;;3.07;;
25435;SDS011;13363;52.772;-3.890;2023-05-07T03:42:39;7.60;;;3.27;;
25435;SDS011;13363;52.772;-3.890;2023-05-07T03:45:05;10.53;;;3.50;;
25435;SDS011;13363;52.772;-3.890;2023-05-07T03:47:32;4.20;;;3.30;;
25435;SDS011;13363;52.772;-3.890;2023-05-07T03:49:58;10.17;;;3.47;;
25435;SDS011;13363;52.772;-3.890;2023-05-07T03:52:24;7.73;;;3.70;;
25435;SDS011;13363;52.772;-3.890;2023-05-07T03:54:51;7.33;;;3.63;;
25435;SDS011;13363;52.772;-3.890;2023-05-07T03:57:18;4.77;;;3.20;;
25435;SDS011;13363;52.772;-3.890;2023-05-07T03:59:44;5.03;;;3.20;;
25435;SDS011;13363;52.772;-3.890;2023-05-07T04:02:10;6.90;;;3.70;;
25435;SDS011;13363;52.772;-3.890;2023-05-07T04:04:36;8.43;;;3.57;;
25435;SDS011;13363;52.772;-3.890;2023-05-07T04:07:01;4.73;;;3.30;;
25435;SDS011;13363;52.772;-3.890;2023-05-07T04:09:28;4.93;;;3.43;;
25435;SDS011;13363;52.772;-3.890;2023-05-07T04:11:53;6.33;;;4.47;;
25435;SDS011;13363;52.772;-3.890;2023-05-07T04:14:19;5.67;;;3.80;;
25435;SDS011;13363;52.772;-3.890;2023-05-07T04:16:45;6.90;;;3.40;;
25435;SDS011;13363;52.772;-3.890;2023-05-07T04:19:11;7.83;;;3.80;;
25435;SDS011;13363;52.772;-3.890;2023-05-07T04:21:37;6.30;;;3.70;;
25435;SDS011;13363;52.772;-3.890;2023-05-07T04:24:03;6.70;;;4.13;;
25435;SDS011;13363;52.772;-3.890;2023-05-07T04:26:29;5.30;;;3.63;;
25435;SDS011;13363;52.772;-3.890;2023-05-07T04:28:55;7.00;;;3.80;;
25435;SDS011;13363;52.772;-3.890;2023-05-07T04:31:22;5.03;;;3.70;;
25435;SDS011;13363;52.772;-3.890;2023-05-07T04:33:48;7.60;;;3.37;;
25435;SDS011;13363;52.772;-3.890;2023-05-07T04:36:14;5.30;;;3.43;;
25435;SDS011;13363;52.772;-3.890;2023-05-07T04:38:40;5.60;;;3.10;;
25435;SDS011;13363;52.772;-3.890;2023-05-07T04:41:06;3.93;;;3.03;;
25435;SDS011;13363;52.772;-3.890;2023-05-07T04:43:32;7.70;;;3.70;;
25435;SDS011;13363;52.772;-3.890;2023-05-07T04:45:58;6.57;;;3.40;;
25435;SDS011;13363;52.772;-3.890;2023-05-07T04:48:24;6.40;;;3.83;;
25435;SDS011;13363;52.772;-3.890;2023-05-07T04:50:50;6.30;;;3.67;;
25435;SDS011;13363;52.772;-3.890;2023-05-07T04:53:18;11.63;;;4.10;;
25435;SDS011;13363;52.772;-3.890;2023-05-07T04:55:44;6.53;;;3.93;;
25435;SDS011;13363;52.772;-3.890;2023-05-07T04:58:11;6.60;;;3.57;;
25435;SDS011;13363;52.772;-3.890;2023-05-07T05:00:37;6.90;;;2.97;;
25435;SDS011;13363;52.772;-3.890;2023-05-07T05:03:04;5.00;;;3.87;;
25435;SDS011;13363;52.772;-3.890;2023-05-07T05:05:31;5.53;;;3.97;;
25435;SDS011;13363;52.772;-3.890;2023-05-07T05:07:57;5.10;;;4.00;;
25435;SDS011;13363;52.772;-3.890;2023-05-07T05:10:23;5.37;;;3.60;;
25435;SDS011;13363;52.772;-3.890;2023-05-07T05:12:50;7.63;;;3.73;;
25435;SDS011;13363;52.772;-3.890;2023-05-07T05:15:16;8.80;;;3.57;;
25435;SDS011;13363;52.772;-3.890;2023-05-07T05:17:41;7.30;;;3.20;;
25435;SDS011;13363;52.772;-3.890;2023-05-07T05:20:07;6.93;;;3.63;;
25435;SDS011;13363;52.772;-3.890;2023-05-07T05:22:35;4.93;;;3.23;;
25435;SDS011;13363;52.772;-3.890;2023-05-07T05:25:01;5.03;;;3.50;;
25435;SDS011;13363;52.772;-3.890;2023-05-07T05:27:28;7.77;;;3.57;;
25435;SDS011;13363;52.772;-3.890;2023-05-07T05:29:54;7.03;;;3.80;;
25435;SDS011;13363;52.772;-3.890;2023-05-07T05:32:19;5.50;;;3.57;;
25435;SDS011;13363;52.772;-3.890;2023-05-07T05:34:45;4.97;;;3.80;;
25435;SDS011;13363;52.772;-3.890;2023-05-07T05:37:11;5.43;;;3.77;;
25435;SDS011;13363;52.772;-3.890;2023-05-07T05:39:37;4.97;;;3.73;;
25435;SDS011;13363;52.772;-3.890;2023-05-07T05:42:03;5.40;;;3.43;;
25435;SDS011;13363;52.772;-3.890;2023-05-07T05:44:29;4.60;;;3.30;;
25435;SDS011;13363;52.772;-3.890;2023-05-07T05:46:54;8.10;;;3.37;;
25435;SDS011;13363;52.772;-3.890;2023-05-07T05:49:22;5.03;;;3.40;;
25435;SDS011;13363;52.772;-3.890;2023-05-07T05:51:48;9.90;;;3.70;;
25435;SDS011;13363;52.772;-3.890;2023-05-07T05:54:14;6.17;;;3.80;;
25435;SDS011;13363;52.772;-3.890;2023-05-07T05:56:41;5.17;;;2.83;;
25435;SDS011;13363;52.772;-3.890;2023-05-07T05:59:07;4.83;;;3.50;;
25435;SDS011;13363;52.772;-3.890;2023-05-07T06:01:33;5.30;;;3.20;;
25435;SDS011;13363;52.772;-3.890;2023-05-07T06:03:59;5.80;;;3.60;;
25435;SDS011;13363;52.772;-3.890;2023-05-07T06:06:25;5.43;;;3.93;;
25435;SDS011;13363;52.772;-3.890;2023-05-07T06:08:51;7.43;;;3.40;;
25435;SDS011;13363;52.772;-3.890;2023-05-07T06:11:16;2.87;;;2.63;;
25435;SDS011;13363;52.772;-3.890;2023-05-07T06:13:42;7.57;;;2.70;;
25435;SDS011;13363;52.772;-3.890;2023-05-07T06:16:08;4.17;;;2.43;;
25435;SDS011;13363;52.772;-3.890;2023-05-07T06:18:34;5.50;;;2.83;;
25435;SDS011;13363;52.772;-3.890;2023-05-07T06:21:01;5.97;;;2.50;;
25435;SDS011;13363;52.772;-3.890;2023-05-07T06:23:27;5.73;;;2.23;;
25435;SDS011;13363;52.772;-3.890;2023-05-07T06:25:52;4.13;;;2.30;;
25435;SDS011;13363;52.772;-3.890;2023-05-07T06:28:18;3.10;;;1.70;;
25435;SDS011;13363;52.772;-3.890;2023-05-07T06:30:44;3.47;;;1.93;;
25435;SDS011;13363;52.772;-3.890;2023-05-07T06:33:10;2.23;;;1.97;;
25435;SDS011;13363;52.772;-3.890;2023-05-07T06:35:36;2.20;;;2.10;;
25435;SDS011;13363;52.772;-3.890;2023-05-07T06:38:02;5.90;;;1.90;;
25435;SDS011;13363;52.772;-3.890;2023-05-07T06:40:27;2.37;;;1.50;;
25435;SDS011;13363;52.772;-3.890;2023-05-07T06:42:53;3.83;;;1.67;;
25435;SDS011;13363;52.772;-3.890;2023-05-07T06:45:19;5.40;;;2.17;;
25435;SDS011;13363;52.772;-3.890;2023-05-07T06:47:45;2.27;;;1.63;;
25435;SDS011;13363;52.772;-3.890;2023-05-07T06:50:11;4.43;;;1.70;;
25435;SDS011;13363;52.772;-3.890;2023-05-07T06:52:37;4.73;;;1.97;;
25435;SDS011;13363;52.772;-3.890;2023-05-07T06:55:03;4.17;;;1.80;;
25435;SDS011;13363;52.772;-3.890;2023-05-07T06:57:29;4.37;;;1.60;;
25435;SDS011;13363;52.772;-3.890;2023-05-07T06:59:55;5.37;;;1.80;;
25435;SDS011;13363;52.772;-3.890;2023-05-07T07:02:21;4.63;;;1.93;;
25435;SDS011;13363;52.772;-3.890;2023-05-07T07:04:47;3.57;;;1.80;;
25435;SDS011;13363;52.772;-3.890;2023-05-07T07:07:13;4.43;;;1.73;;
25435;SDS011;13363;52.772;-3.890;2023-05-07T07:09:39;5.27;;;1.70;;
25435;SDS011;13363;52.772;-3.890;2023-05-07T07:12:05;3.67;;;2.00;;
25435;SDS011;13363;52.772;-3.890;2023-05-07T07:14:30;4.43;;;1.80;;
25435;SDS011;13363;52.772;-3.890;2023-05-07T07:16:56;5.57;;;1.60;;
25435;SDS011;13363;52.772;-3.890;2023-05-07T07:19:22;3.50;;;1.87;;
25435;SDS011;13363;52.772;-3.890;2023-05-07T07:21:48;5.20;;;1.77;;
25435;SDS011;13363;52.772;-3.890;2023-05-07T07:24:14;3.77;;;1.60;;
25435;SDS011;13363;52.772;-3.890;2023-05-07T07:26:46;4.27;;;2.07;;
25435;SDS011;13363;52.772;-3.890;2023-05-07T07:29:12;3.37;;;1.80;;
25435;SDS011;13363;52.772;-3.890;2023-05-07T07:31:38;3.50;;;1.37;;
25435;SDS011;13363;52.772;-3.890;2023-05-07T07:34:04;3.57;;;2.00;;
25435;SDS011;13363;52.772;-3.890;2023-05-07T07:36:30;5.80;;;2.30;;
25435;SDS011;13363;52.772;-3.890;2023-05-07T07:38:56;3.70;;;1.57;;
25435;SDS011;13363;52.772;-3.890;2023-05-07T07:41:21;1.53;;;1.40;;
25435;SDS011;13363;52.772;-3.890;2023-05-07T07:43:48;5.80;;;1.87;;
25435;SDS011;13363;52.772;-3.890;2023-05-07T07:46:13;6.93;;;2.10;;
25435;SDS011;13363;52.772;-3.890;2023-05-07T07:48:39;7.13;;;2.03;;
25435;SDS011;13363;52.772;-3.890;2023-05-07T07:51:06;4.80;;;1.70;;
25435;SDS011;13363;52.772;-3.890;2023-05-07T07:53:32;4.07;;;2.10;;
25435;SDS011;13363;52.772;-3.890;2023-05-07T07:55:57;4.50;;;2.07;;
25435;SDS011;13363;52.772;-3.890;2023-05-07T07:58:23;9.40;;;2.57;;
25435;SDS011;13363;52.772;-3.890;2023-05-07T08:00:49;5.67;;;2.50;;
25435;SDS011;13363;52.772;-3.890;2023-05-07T08:03:16;6.43;;;2.03;;
25435;SDS011;13363;52.772;-3.890;2023-05-07T08:05:42;5.30;;;1.90;;
25435;SDS011;13363;52.772;-3.890;2023-05-07T08:08:08;5.33;;;2.10;;
25435;SDS011;13363;52.772;-3.890;2023-05-07T08:10:34;2.80;;;2.00;;
25435;SDS011;13363;52.772;-3.890;2023-05-07T08:13:03;2.50;;;1.70;;
25435;SDS011;13363;52.772;-3.890;2023-05-07T08:15:29;4.43;;;2.10;;
25435;SDS011;13363;52.772;-3.890;2023-05-07T08:17:55;4.63;;;2.27;;
25435;SDS011;13363;52.772;-3.890;2023-05-07T08:20:22;2.00;;;1.60;;
25435;SDS011;13363;52.772;-3.890;2023-05-07T08:22:48;6.37;;;1.97;;
25435;SDS011;13363;52.772;-3.890;2023-05-07T08:25:16;3.80;;;1.77;;
25435;SDS011;13363;52.772;-3.890;2023-05-07T08:27:41;3.10;;;1.60;;
25435;SDS011;13363;52.772;-3.890;2023-05-07T08:30:08;2.93;;;1.70;;
25435;SDS011;13363;52.772;-3.890;2023-05-07T08:32:34;6.60;;;2.10;;
25435;SDS011;13363;52.772;-3.890;2023-05-07T08:35:00;4.03;;;1.70;;
25435;SDS011;13363;52.772;-3.890;2023-05-07T08:37:26;3.17;;;1.80;;
25435;SDS011;13363;52.772;-3.890;2023-05-07T08:39:52;2.67;;;2.00;;
25435;SDS011;13363;52.772;-3.890;2023-05-07T08:42:18;5.07;;;1.90;;
25435;SDS011;13363;52.772;-3.890;2023-05-07T08:44:45;2.60;;;1.93;;
25435;SDS011;13363;52.772;-3.890;2023-05-07T08:47:14;7.23;;;2.20;;
25435;SDS011;13363;52.772;-3.890;2023-05-07T08:49:40;4.60;;;2.17;;
25435;SDS011;13363;52.772;-3.890;2023-05-07T08:52:06;3.90;;;1.70;;
25435;SDS011;13363;52.772;-3.890;2023-05-07T08:54:32;6.03;;;2.27;;
25435;SDS011;13363;52.772;-3.890;2023-05-07T08:57:00;2.70;;;1.80;;
25435;SDS011;13363;52.772;-3.890;2023-05-07T08:59:26;5.33;;;3.10;;
25435;SDS011;13363;52.772;-3.890;2023-05-07T09:01:52;2.30;;;2.00;;
25435;SDS011;13363;52.772;-3.890;2023-05-07T09:04:17;5.93;;;2.53;;
25435;SDS011;13363;52.772;-3.890;2023-05-07T09:06:43;4.70;;;2.43;;
25435;SDS011;13363;52.772;-3.890;2023-05-07T09:09:09;5.13;;;2.20;;
25435;SDS011;13363;52.772;-3.890;2023-05-07T09:11:39;8.17;;;2.40;;
25435;SDS011;13363;52.772;-3.890;2023-05-07T09:14:04;5.73;;;2.60;;
25435;SDS011;13363;52.772;-3.890;2023-05-07T09:16:30;6.90;;;2.27;;
25435;SDS011;13363;52.772;-3.890;2023-05-07T09:18:57;5.43;;;2.60;;
25435;SDS011;13363;52.772;-3.890;2023-05-07T09:21:25;6.07;;;2.63;;
25435;SDS011;13363;52.772;-3.890;2023-05-07T09:23:54;9.03;;;3.43;;
25435;SDS011;13363;52.772;-3.890;2023-05-07T09:26:21;5.97;;;2.63;;
25435;SDS011;13363;52.772;-3.890;2023-05-07T09:28:48;7.73;;;2.90;;
25435;SDS011;13363;52.772;-3.890;2023-05-07T09:31:13;8.23;;;2.50;;
25435;SDS011;13363;52.772;-3.890;2023-05-07T09:33:39;2.67;;;2.43;;
25435;SDS011;13363;52.772;-3.890;2023-05-07T09:36:06;4.83;;;2.70;;
25435;SDS011;13363;52.772;-3.890;2023-05-07T09:38:34;5.87;;;2.70;;
25435;SDS011;13363;52.772;-3.890;2023-05-07T09:41:13;8.57;;;2.70;;
25435;SDS011;13363;52.772;-3.890;2023-05-07T09:43:39;4.63;;;2.53;;
25435;SDS011;13363;52.772;-3.890;2023-05-07T09:46:13;4.57;;;2.47;;
25435;SDS011;13363;52.772;-3.890;2023-05-07T09:48:41;7.20;;;2.53;;
25435;SDS011;13363;52.772;-3.890;2023-05-07T09:53:53;7.43;;;2.80;;
25435;SDS011;13363;52.772;-3.890;2023-05-07T09:56:19;7.30;;;3.20;;
25435;SDS011;13363;52.772;-3.890;2023-05-07T09:58:46;7.70;;;2.50;;
25435;SDS011;13363;52.772;-3.890;2023-05-07T10:01:15;6.73;;;2.90;;
25435;SDS011;13363;52.772;-3.890;2023-05-07T10:03:44;13.53;;;2.93;;
25435;SDS011;13363;52.772;-3.890;2023-05-07T10:06:11;6.30;;;3.40;;
25435;SDS011;13363;52.772;-3.890;2023-05-07T10:08:38;10.03;;;2.60;;
25435;SDS011;13363;52.772;-3.890;2023-05-07T10:11:05;7.77;;;2.60;;
25435;SDS011;13363;52.772;-3.890;2023-05-07T10:13:32;5.63;;;3.00;;
25435;SDS011;13363;52.772;-3.890;2023-05-07T10:16:05;6.03;;;3.33;;
25435;SDS011;13363;52.772;-3.890;2023-05-07T10:18:31;7.63;;;3.00;;
25435;SDS011;13363;52.772;-3.890;2023-05-07T10:21:11;5.17;;;3.37;;
25435;SDS011;13363;52.772;-3.890;2023-05-07T10:23:41;8.53;;;3.37;;
25435;SDS011;13363;52.772;-3.890;2023-05-07T10:26:31;9.60;;;3.77;;
25435;SDS011;13363;52.772;-3.890;2023-05-07T10:29:01;9.37;;;3.13;;
25435;SDS011;13363;52.772;-3.890;2023-05-07T10:31:50;7.17;;;3.17;;
25435;SDS011;13363;52.772;-3.890;2023-05-07T10:34:42;4.47;;;2.60;;
25435;SDS011;13363;52.772;-3.890;2023-05-07T10:37:10;4.83;;;2.50;;
25435;SDS011;13363;52.772;-3.890;2023-05-07T10:39:37;4.80;;;2.63;;
25435;SDS011;13363;52.772;-3.890;2023-05-07T10:42:09;5.20;;;2.50;;
25435;SDS011;13363;52.772;-3.890;2023-05-07T10:44:36;4.17;;;2.57;;
25435;SDS011;13363;52.772;-3.890;2023-05-07T10:47:03;6.43;;;2.20;;
25435;SDS011;13363;52.772;-3.890;2023-05-07T10:49:29;7.33;;;2.27;;
25435;SDS011;13363;52.772;-3.890;2023-05-07T10:54:41;2.10;;;1.97;;
25435;SDS011;13363;52.772;-3.890;2023-05-07T10:59:57;5.93;;;2.40;;
25435;SDS011;13363;52.772;-3.890;2023-05-07T11:02:23;3.80;;;2.63;;
25435;SDS011;13363;52.772;-3.890;2023-05-07T11:05:21;5.67;;;2.30;;
25435;SDS011;13363;52.772;-3.890;2023-05-07T11:07:54;2.73;;;1.93;;
25435;SDS011;13363;52.772;-3.890;2023-05-07T11:16:17;6.50;;;1.97;;
25435;SDS011;13363;52.772;-3.890;2023-05-07T11:24:00;2.47;;;2.20;;
25435;SDS011;13363;52.772;-3.890;2023-05-07T11:26:28;3.27;;;1.70;;
25435;SDS011;13363;52.772;-3.890;2023-05-07T11:28:56;3.23;;;1.83;;
25435;SDS011;13363;52.772;-3.890;2023-05-07T11:31:26;3.50;;;2.20;;
25435;SDS011;13363;52.772;-3.890;2023-05-07T11:33:53;2.97;;;1.90;;
25435;SDS011;13363;52.772;-3.890;2023-05-07T11:36:21;3.30;;;2.03;;
25435;SDS011;13363;52.772;-3.890;2023-05-07T11:38:48;4.20;;;1.80;;
25435;SDS011;13363;52.772;-3.890;2023-05-07T11:41:15;5.47;;;2.73;;
25435;SDS011;13363;52.772;-3.890;2023-05-07T11:43:55;2.37;;;1.23;;
25435;SDS011;13363;52.772;-3.890;2023-05-07T11:46:21;3.97;;;2.57;;
25435;SDS011;13363;52.772;-3.890;2023-05-07T11:48:47;2.60;;;1.53;;
25435;SDS011;13363;52.772;-3.890;2023-05-07T11:51:13;3.73;;;1.53;;
25435;SDS011;13363;52.772;-3.890;2023-05-07T11:53:45;3.23;;;1.83;;
25435;SDS011;13363;52.772;-3.890;2023-05-07T11:56:14;3.23;;;1.40;;
25435;SDS011;13363;52.772;-3.890;2023-05-07T11:58:42;3.03;;;1.90;;
25435;SDS011;13363;52.772;-3.890;2023-05-07T12:01:09;3.73;;;1.23;;
25435;SDS011;13363;52.772;-3.890;2023-05-07T12:03:36;5.07;;;2.10;;
25435;SDS011;13363;52.772;-3.890;2023-05-07T12:06:08;2.67;;;2.00;;
25435;SDS011;13363;52.772;-3.890;2023-05-07T12:08:36;7.03;;;1.77;;
25435;SDS011;13363;52.772;-3.890;2023-05-07T12:11:03;2.40;;;2.00;;
25435;SDS011;13363;52.772;-3.890;2023-05-07T12:13:31;2.00;;;1.80;;
25435;SDS011;13363;52.772;-3.890;2023-05-07T12:15:57;5.20;;;2.40;;
25435;SDS011;13363;52.772;-3.890;2023-05-07T12:18:23;3.80;;;1.87;;
25435;SDS011;13363;52.772;-3.890;2023-05-07T12:20:50;2.97;;;2.10;;
25435;SDS011;13363;52.772;-3.890;2023-05-07T12:23:16;1.80;;;1.70;;
25435;SDS011;13363;52.772;-3.890;2023-05-07T12:25:42;4.33;;;2.00;;
25435;SDS011;13363;52.772;-3.890;2023-05-07T12:28:13;3.03;;;1.80;;
25435;SDS011;13363;52.772;-3.890;2023-05-07T12:30:43;4.13;;;2.03;;
25435;SDS011;13363;52.772;-3.890;2023-05-07T12:33:11;2.63;;;1.67;;
25435;SDS011;13363;52.772;-3.890;2023-05-07T12:35:39;2.00;;;1.90;;
25435;SDS011;13363;52.772;-3.890;2023-05-07T12:38:12;2.00;;;1.63;;
25435;SDS011;13363;52.772;-3.890;2023-05-07T12:40:40;2.97;;;1.70;;
25435;SDS011;13363;52.772;-3.890;2023-05-07T12:43:07;1.90;;;1.70;;
25435;SDS011;13363;52.772;-3.890;2023-05-07T12:45:41;3.77;;;1.80;;
25435;SDS011;13363;52.772;-3.890;2023-05-07T12:48:07;2.27;;;1.67;;
25435;SDS011;13363;52.772;-3.890;2023-05-07T12:50:35;4.23;;;2.30;;
25435;SDS011;13363;52.772;-3.890;2023-05-07T12:53:02;2.93;;;1.97;;
25435;SDS011;13363;52.772;-3.890;2023-05-07T12:55:31;3.60;;;2.10;;
25435;SDS011;13363;52.772;-3.890;2023-05-07T12:58:00;3.60;;;1.90;;
25435;SDS011;13363;52.772;-3.890;2023-05-07T13:00:36;5.37;;;1.77;;
25435;SDS011;13363;52.772;-3.890;2023-05-07T13:03:03;4.70;;;2.13;;
25435;SDS011;13363;52.772;-3.890;2023-05-07T13:05:30;4.27;;;1.87;;
25435;SDS011;13363;52.772;-3.890;2023-05-07T13:07:56;3.43;;;2.10;;
25435;SDS011;13363;52.772;-3.890;2023-05-07T13:10:23;2.93;;;1.60;;
25435;SDS011;13363;52.772;-3.890;2023-05-07T13:12:51;1.97;;;1.80;;
25435;SDS011;13363;52.772;-3.890;2023-05-07T13:15:17;3.17;;;1.97;;
25435;SDS011;13363;52.772;-3.890;2023-05-07T13:17:44;2.50;;;1.60;;
25435;SDS011;13363;52.772;-3.890;2023-05-07T13:20:17;3.17;;;1.93;;
25435;SDS011;13363;52.772;-3.890;2023-05-07T13:22:43;3.97;;;1.77;;
25435;SDS011;13363;52.772;-3.890;2023-05-07T13:25:09;4.53;;;1.77;;
25435;SDS011;13363;52.772;-3.890;2023-05-07T13:27:35;1.57;;;1.47;;
25435;SDS011;13363;52.772;-3.890;2023-05-07T13:30:02;3.03;;;1.87;;
25435;SDS011;13363;52.772;-3.890;2023-05-07T13:32:29;4.73;;;1.97;;
25435;SDS011;13363;52.772;-3.890;2023-05-07T13:34:55;2.47;;;1.60;;
25435;SDS011;13363;52.772;-3.890;2023-05-07T13:37:21;1.40;;;1.30;;
25435;SDS011;13363;52.772;-3.890;2023-05-07T13:39:47;1.60;;;1.50;;
25435;SDS011;13363;52.772;-3.890;2023-05-07T13:42:13;2.03;;;1.67;;
25435;SDS011;13363;52.772;-3.890;2023-05-07T13:44:38;4.63;;;0.77;;
25435;SDS011;13363;52.772;-3.890;2023-05-07T13:47:04;4.23;;;1.67;;
25435;SDS011;13363;52.772;-3.890;2023-05-07T13:49:30;1.60;;;1.50;;
25435;SDS011;13363;52.772;-3.890;2023-05-07T13:51:57;4.17;;;1.67;;
25435;SDS011;13363;52.772;-3.890;2023-05-07T13:54:22;2.93;;;1.80;;
25435;SDS011;13363;52.772;-3.890;2023-05-07T13:56:48;1.93;;;1.60;;
25435;SDS011;13363;52.772;-3.890;2023-05-07T13:59:14;1.77;;;1.67;;
25435;SDS011;13363;52.772;-3.890;2023-05-07T14:01:40;4.77;;;1.70;;
25435;SDS011;13363;52.772;-3.890;2023-05-07T14:04:06;3.77;;;1.60;;
25435;SDS011;13363;52.772;-3.890;2023-05-07T14:06:33;2.57;;;1.70;;
25435;SDS011;13363;52.772;-3.890;2023-05-07T14:08:59;2.83;;;1.83;;
25435;SDS011;13363;52.772;-3.890;2023-05-07T14:11:25;4.40;;;1.70;;
25435;SDS011;13363;52.772;-3.890;2023-05-07T14:13:51;3.73;;;1.60;;
25435;SDS011;13363;52.772;-3.890;2023-05-07T14:16:17;1.70;;;1.30;;
25435;SDS011;13363;52.772;-3.890;2023-05-07T14:18:43;1.67;;;1.57;;
25435;SDS011;13363;52.772;-3.890;2023-05-07T14:21:09;1.27;;;1.17;;
25435;SDS011;13363;52.772;-3.890;2023-05-07T14:23:35;2.23;;;1.13;;
25435;SDS011;13363;52.772;-3.890;2023-05-07T14:26:01;3.40;;;1.60;;
25435;SDS011;13363;52.772;-3.890;2023-05-07T14:28:27;2.47;;;1.50;;
25435;SDS011;13363;52.772;-3.890;2023-05-07T14:30:53;3.77;;;1.50;;
25435;SDS011;13363;52.772;-3.890;2023-05-07T14:33:18;4.40;;;1.77;;
25435;SDS011;13363;52.772;-3.890;2023-05-07T14:35:44;1.50;;;1.40;;
25435;SDS011;13363;52.772;-3.890;2023-05-07T14:38:13;3.17;;;2.10;;
25435;SDS011;13363;52.772;-3.890;2023-05-07T14:40:40;6.03;;;2.17;;
25435;SDS011;13363;52.772;-3.890;2023-05-07T14:43:06;4.33;;;2.20;;
25435;SDS011;13363;52.772;-3.890;2023-05-07T14:45:33;1.73;;;1.63;;
25435;SDS011;13363;52.772;-3.890;2023-05-07T14:47:59;3.57;;;1.73;;
25435;SDS011;13363;52.772;-3.890;2023-05-07T14:50:25;4.37;;;1.70;;